Time;durP1;ratioP1;P1;durP2;ratioP2;P2;SDS_P1;SDS_P2;PMS_P1;PMS_P2;Temp;Humidity;BMP_temperature;BMP_pressure;BME280_temperature;BME280_humidity;BME280_pressure;Samples;Min_cycle;Max_cycle;Signal;HPM_P1;HPM_P2
2021/04/18 00:01:16;;;;;;;5.20;2.63;;;;;;;6.59;58.38;101950.00;5015969;28;20085;-66
2021/04/18 00:03:42;;;;;;;13.13;3.83;;;;;;;6.50;58.65;101946.44;5021091;28;20073;-66
2021/04/18 00:06:08;;;;;;;8.02;2.60;;;;;;;6.57;59.11;101941.34;5014034;28;20140;-66
2021/04/18 00:08:35;;;;;;;7.25;2.60;;;;;;;6.52;58.79;101944.75;5019356;28;20045;-65
2021/04/18 00:11:01;;;;;;;14.20;3.03;;;;;;;6.47;59.30;101940.34;5015819;28;20053;-65
2021/04/18 00:13:27;;;;;;;11.20;3.45;;;;;;;6.36;59.64;101942.72;5017686;28;20100;-66
2021/04/18 00:15:53;;;;;;;9.80;2.85;;;;;;;6.26;59.98;101941.72;5018457;28;20045;-66
2021/04/18 00:18:19;;;;;;;14.15;3.58;;;;;;;6.21;59.90;101935.56;5016134;28;20057;-66
2021/04/18 00:20:45;;;;;;;7.72;3.30;;;;;;;6.16;60.13;101934.63;5015569;28;20087;-66
2021/04/18 00:23:11;;;;;;;12.60;3.40;;;;;;;6.06;60.84;101931.88;5017640;28;20045;-65
2021/04/18 00:25:37;;;;;;;8.25;2.70;;;;;;;6.07;60.97;101927.56;5015511;28;20724;-67
2021/04/18 00:28:04;;;;;;;8.80;3.25;;;;;;;6.06;60.59;101929.28;5021648;28;20589;-64
2021/04/18 00:30:30;;;;;;;7.72;2.60;;;;;;;6.02;61.01;101932.66;5016043;28;20038;-65
2021/04/18 00:32:56;;;;;;;8.35;3.35;;;;;;;6.09;60.73;101925.88;5016028;28;20049;-66
2021/04/18 00:35:22;;;;;;;7.65;2.88;;;;;;;6.09;61.50;101919.88;5016407;28;20505;-65
2021/04/18 00:37:49;;;;;;;9.10;3.13;;;;;;;6.15;60.78;101922.53;5017476;28;20588;-65
2021/04/18 00:40:18;;;;;;;11.00;3.28;;;;;;;6.15;60.84;101923.41;5016725;28;20140;-66
2021/04/18 00:42:45;;;;;;;8.68;2.85;;;;;;;6.25;60.72;101924.47;5017657;28;20057;-63
2021/04/18 00:45:13;;;;;;;7.65;3.20;;;;;;;6.26;60.66;101920.16;5017896;28;20144;-67
2021/04/18 00:47:42;;;;;;;7.28;3.35;;;;;;;6.20;60.38;101926.97;5023327;28;20507;-63
2021/04/18 00:50:09;;;;;;;10.75;2.97;;;;;;;6.15;61.15;101926.00;5014467;28;20061;-65
2021/04/18 00:52:35;;;;;;;8.35;3.17;;;;;;;6.13;61.18;101922.53;5018890;28;20068;-65
2021/04/18 00:55:03;;;;;;;9.45;3.05;;;;;;;6.09;61.04;101920.72;5016025;28;20448;-66
2021/04/18 00:57:29;;;;;;;10.15;3.10;;;;;;;6.08;61.27;101916.41;5018040;28;20450;-65
2021/04/18 00:59:59;;;;;;;12.60;4.55;;;;;;;6.03;61.13;101918.03;5015033;28;20054;-66
2021/04/18 01:02:25;;;;;;;9.60;3.75;;;;;;;5.97;61.57;101911.00;5017089;28;20057;-68
2021/04/18 01:04:51;;;;;;;8.38;3.38;;;;;;;5.96;61.45;101910.97;5016421;28;20064;-66
2021/04/18 01:07:17;;;;;;;9.95;3.75;;;;;;;5.93;61.72;101916.09;5015848;28;20431;-66
2021/04/18 01:09:43;;;;;;;7.90;3.50;;;;;;;5.88;61.54;101916.00;5017092;28;20165;-66
2021/04/18 01:12:09;;;;;;;10.63;3.50;;;;;;;5.83;61.74;101909.84;5014514;28;20420;-65
2021/04/18 01:14:35;;;;;;;6.32;2.63;;;;;;;5.79;62.28;101910.66;5017162;28;20067;-65
2021/04/18 01:17:02;;;;;;;11.25;3.20;;;;;;;5.83;62.30;101912.44;5014358;28;20132;-66
2021/04/18 01:19:29;;;;;;;11.52;3.33;;;;;;;5.74;62.20;101911.44;5015023;28;20082;-67
2021/04/18 01:21:55;;;;;;;13.13;3.50;;;;;;;5.74;62.31;101906.25;5018326;28;20145;-66
2021/04/18 01:24:21;;;;;;;8.30;3.63;;;;;;;5.72;62.45;101904.50;5016500;28;20061;-66
2021/04/18 01:26:47;;;;;;;5.88;2.70;;;;;;;5.68;62.61;101915.59;5015337;28;20180;-66
2021/04/18 01:29:13;;;;;;;11.23;3.90;;;;;;;5.54;63.56;101905.84;5020392;28;20132;-64
2021/04/18 01:31:39;;;;;;;9.80;3.08;;;;;;;5.52;63.85;101906.66;5016375;28;20473;-66
2021/04/18 01:34:06;;;;;;;12.18;3.47;;;;;;;5.55;64.08;101902.44;5016990;28;20200;-66
2021/04/18 01:36:32;;;;;;;8.20;3.30;;;;;;;5.52;63.61;101902.38;5016981;28;20095;-66
2021/04/18 01:38:58;;;;;;;7.63;3.08;;;;;;;5.56;63.57;101896.44;5017365;28;20049;-66
2021/04/18 01:41:25;;;;;;;9.05;3.50;;;;;;;5.62;63.22;101903.44;5008026;28;20053;-66
2021/04/18 01:43:51;;;;;;;10.68;3.25;;;;;;;5.62;63.45;101905.16;5017489;28;20135;-66
2021/04/18 01:47:07;;;;;;;8.65;3.03;;;;;;;5.58;63.28;101899.06;5017690;28;20053;-65
2021/04/18 01:49:33;;;;;;;9.35;3.55;;;;;;;5.51;63.42;101895.47;5020409;28;20041;-65
2021/04/18 01:51:59;;;;;;;7.78;3.60;;;;;;;5.48;63.66;101892.81;5019855;28;20046;-67
2021/04/18 01:54:26;;;;;;;9.13;4.18;;;;;;;5.45;63.98;101890.19;5014924;28;20049;-66
2021/04/18 01:56:52;;;;;;;9.23;3.10;;;;;;;5.40;63.95;101884.06;5021627;28;20465;-66
2021/04/18 01:59:19;;;;;;;10.30;4.00;;;;;;;5.45;64.13;101888.47;5018929;28;20119;-67
2021/04/18 02:01:45;;;;;;;6.57;3.20;;;;;;;5.37;63.92;101884.00;5019537;28;20077;-66
2021/04/18 02:04:22;;;;;;;9.18;2.92;;;;;;;5.27;64.13;101893.25;5019462;28;20049;-66
2021/04/18 02:06:48;;;;;;;8.23;3.00;;;;;;;5.20;64.93;101889.69;5021289;28;20131;-65
2021/04/18 02:09:14;;;;;;;10.65;2.67;;;;;;;5.18;65.08;101887.91;5021456;28;20049;-66
2021/04/18 02:11:42;;;;;;;10.73;3.38;;;;;;;5.18;65.37;101886.19;5016395;28;20134;-64
2021/04/18 02:14:08;;;;;;;8.23;3.58;;;;;;;5.16;65.15;101893.00;5020919;28;20045;-66
2021/04/18 02:16:34;;;;;;;9.93;3.63;;;;;;;5.10;65.36;101886.00;5021191;28;20049;-65
2021/04/18 02:25:45;;;;;;;10.73;3.88;;;;;;;4.98;65.63;101889.19;5012879;28;20037;-62
2021/04/18 02:29:00;;;;;;;9.48;3.45;;;;;;;4.95;66.66;101881.38;5017579;28;20045;-66
2021/04/18 02:31:27;;;;;;;9.63;3.05;;;;;;;4.96;66.48;101883.13;5016506;28;20073;-66
2021/04/18 02:33:53;;;;;;;12.05;3.67;;;;;;;4.95;67.01;101881.38;5019741;28;20144;-66
2021/04/18 02:39:41;;;;;;;13.63;3.28;;;;;;;4.93;67.22;101871.88;5016350;28;20044;-66
2021/04/18 02:42:07;;;;;;;8.98;3.78;;;;;;;4.98;67.47;101878.88;5021151;28;20568;-65
2021/04/18 02:44:33;;;;;;;11.95;3.92;;;;;;;4.98;67.07;101880.59;5022138;28;20069;-65
2021/04/18 02:47:00;;;;;;;9.75;4.05;;;;;;;4.92;67.66;101883.03;5011135;28;20149;-66
2021/04/18 02:49:26;;;;;;;10.60;3.55;;;;;;;4.90;67.75;101883.00;5014670;28;20056;-65
2021/04/18 02:51:52;;;;;;;8.40;3.95;;;;;;;4.93;68.03;101887.34;5021036;28;20049;-66
2021/04/18 02:54:19;;;;;;;9.93;4.40;;;;;;;4.82;67.76;101882.81;5016649;28;20053;-64
2021/04/18 02:56:44;;;;;;;10.57;4.05;;;;;;;4.81;67.80;101881.06;5020132;28;20056;-66
2021/04/18 02:59:10;;;;;;;12.38;3.95;;;;;;;4.81;68.36;101888.81;5015413;28;20422;-66
2021/04/18 03:01:37;;;;;;;14.30;3.85;;;;;;;4.82;68.37;101885.41;5020303;28;20140;-64
2021/04/18 03:04:04;;;;;;;9.00;3.92;;;;;;;4.81;68.76;101886.22;5015432;28;20049;-65
2021/04/18 03:06:31;;;;;;;8.50;3.67;;;;;;;4.85;69.03;101883.72;5031359;28;20060;-64
2021/04/18 03:08:57;;;;;;;12.95;5.18;;;;;;;4.86;68.64;101893.22;5019675;28;20049;-66
2021/04/18 03:11:23;;;;;;;8.80;3.92;;;;;;;4.86;68.83;101888.06;5018187;28;20049;-66
2021/04/18 03:13:49;;;;;;;14.07;5.13;;;;;;;4.81;68.76;101895.69;5019876;28;20052;-66
2021/04/18 03:16:15;;;;;;;9.95;3.95;;;;;;;4.85;68.87;101888.88;5017564;28;20050;-66
2021/04/18 03:18:41;;;;;;;10.32;4.07;;;;;;;4.88;69.20;101887.25;5019809;28;20061;-66
2021/04/18 03:21:08;;;;;;;12.82;4.28;;;;;;;4.82;69.33;101885.41;5016945;28;20056;-67
2021/04/18 03:23:34;;;;;;;7.55;3.88;;;;;;;4.80;69.46;101891.34;5017990;28;20516;-66
2021/04/18 03:26:01;;;;;;;10.18;3.97;;;;;;;4.79;69.96;101892.19;5018202;28;20072;-66
2021/04/18 03:28:27;;;;;;;12.93;5.07;;;;;;;4.79;70.25;101889.59;5021959;28;20068;-66
2021/04/18 03:30:53;;;;;;;11.23;4.97;;;;;;;4.86;70.07;101891.47;5018823;28;20049;-66
2021/04/18 03:33:19;;;;;;;12.13;4.70;;;;;;;4.80;70.62;101886.19;5018237;28;20049;-66
2021/04/18 03:35:45;;;;;;;15.70;4.78;;;;;;;4.78;70.49;101886.19;5017934;28;20127;-66
2021/04/18 03:38:12;;;;;;;13.88;4.70;;;;;;;4.83;70.89;101889.72;5019329;28;20050;-66
2021/04/18 03:40:39;;;;;;;12.30;4.75;;;;;;;4.86;71.24;101891.47;5015244;28;20045;-65
2021/04/18 03:43:20;;;;;;;16.73;5.00;;;;;;;4.79;71.48;101884.44;5013938;28;20049;-65
2021/04/18 03:45:46;;;;;;;13.70;5.50;;;;;;;4.76;71.56;101889.53;5018756;28;20048;-66
2021/04/18 03:48:12;;;;;;;18.95;5.78;;;;;;;4.85;71.78;101894.91;5015821;28;20092;-66
2021/04/18 03:50:38;;;;;;;20.02;6.10;;;;;;;4.80;71.80;101892.22;5016779;28;20064;-66
2021/04/18 03:53:04;;;;;;;12.85;5.65;;;;;;;4.77;72.42;101887.00;5017875;28;20144;-66
2021/04/18 03:55:31;;;;;;;15.85;5.50;;;;;;;4.75;72.95;101882.63;5016711;28;20053;-66
2021/04/18 03:57:57;;;;;;;15.07;5.05;;;;;;;4.82;72.72;101887.13;5018576;28;20049;-66
2021/04/18 04:00:24;;;;;;;11.68;5.40;;;;;;;4.77;72.86;101891.28;5015632;28;20553;-66
2021/04/18 04:02:50;;;;;;;11.95;5.45;;;;;;;4.73;73.37;101884.31;5012678;28;20068;-66
2021/04/18 04:05:16;;;;;;;13.02;5.55;;;;;;;4.88;73.11;101886.38;5027693;28;20049;-66
2021/04/18 04:07:42;;;;;;;12.00;5.28;;;;;;;4.94;72.80;101884.78;5022397;28;20120;-65
2021/04/18 04:10:09;;;;;;;16.10;6.30;;;;;;;5.02;72.78;101879.81;5014463;28;20046;-67
2021/04/18 04:12:36;;;;;;;13.98;7.40;;;;;;;5.01;73.06;101884.94;5012173;28;20088;-66
2021/04/18 04:15:02;;;;;;;13.75;7.03;;;;;;;5.01;73.19;101879.78;5014992;28;20061;-66
2021/04/18 04:17:28;;;;;;;15.07;5.63;;;;;;;5.10;73.04;101886.00;5017310;28;20049;-65
2021/04/18 04:19:54;;;;;;;16.60;5.82;;;;;;;5.11;73.11;101885.19;5014496;28;20099;-66
2021/04/18 04:22:20;;;;;;;14.95;5.50;;;;;;;5.12;72.90;101881.75;5017568;28;20053;-65
2021/04/18 04:24:47;;;;;;;11.13;4.88;;;;;;;5.08;73.38;101876.50;5012016;28;20045;-65
2021/04/18 04:27:14;;;;;;;12.05;5.00;;;;;;;5.07;72.95;101870.50;5016406;28;20049;-67
2021/04/18 04:29:41;;;;;;;21.13;6.85;;;;;;;5.02;73.08;101868.66;5012385;28;20045;-65
2021/04/18 04:32:07;;;;;;;12.10;5.65;;;;;;;5.00;73.79;101878.03;5014815;28;20057;-66
2021/04/18 04:34:33;;;;;;;12.02;5.38;;;;;;;5.03;73.57;101883.28;5017348;28;20072;-66
2021/04/18 04:36:59;;;;;;;17.73;6.35;;;;;;;5.06;73.49;101883.31;5017488;28;20518;-66
2021/04/18 04:39:25;;;;;;;12.10;5.50;;;;;;;5.04;73.03;101882.44;5006962;28;20807;-66
2021/04/18 04:41:51;;;;;;;14.77;5.32;;;;;;;5.02;72.82;101884.97;5016518;28;20095;-66
2021/04/18 04:44:17;;;;;;;12.30;5.70;;;;;;;4.97;73.12;101884.00;5014805;28;21029;-65
2021/04/18 04:46:45;;;;;;;12.95;5.78;;;;;;;4.94;73.22;101884.78;5016036;28;20140;-66
2021/04/18 04:49:11;;;;;;;14.35;5.28;;;;;;;4.98;72.48;101881.47;5017745;28;20049;-65
2021/04/18 04:51:37;;;;;;;16.08;6.05;;;;;;;4.85;73.54;101876.00;5016366;28;20092;-65
2021/04/18 04:54:03;;;;;;;13.85;5.47;;;;;;;4.83;73.51;101883.69;5011714;28;20069;-66
2021/04/18 04:56:29;;;;;;;15.43;5.15;;;;;;;4.76;74.03;101887.84;5014605;28;20062;-66
2021/04/18 04:58:55;;;;;;;14.63;6.05;;;;;;;4.73;73.75;101882.59;5013870;28;20517;-66
2021/04/18 05:01:21;;;;;;;15.35;5.30;;;;;;;4.75;74.00;101883.53;5015809;28;20473;-66
2021/04/18 05:03:48;;;;;;;10.73;4.70;;;;;;;4.71;74.05;101873.09;5015919;28;20125;-67
2021/04/18 05:06:14;;;;;;;11.32;5.43;;;;;;;4.72;74.14;101874.84;5016365;28;20046;-65
2021/04/18 05:08:40;;;;;;;13.57;5.82;;;;;;;4.80;74.57;101870.72;5015710;28;20140;-65
2021/04/18 05:11:06;;;;;;;16.48;6.07;;;;;;;4.74;75.14;101876.63;5015005;28;20045;-65
2021/04/18 05:13:33;;;;;;;14.88;5.88;;;;;;;4.76;75.37;101879.22;5016190;28;20049;-65
2021/04/18 05:15:59;;;;;;;18.33;7.00;;;;;;;4.84;74.99;101890.59;5015669;28;20053;-65
2021/04/18 05:18:25;;;;;;;21.00;8.52;;;;;;;4.83;75.68;101887.13;5020963;28;20127;-66
2021/04/18 05:20:52;;;;;;;16.65;7.22;;;;;;;4.90;76.05;101888.16;5017864;28;20496;-66
2021/04/18 05:23:18;;;;;;;21.10;7.88;;;;;;;4.99;75.84;101884.94;5018595;28;20414;-66
2021/04/18 05:25:44;;;;;;;18.42;7.78;;;;;;;5.13;75.51;101887.81;5019167;28;20128;-66
2021/04/18 05:28:10;;;;;;;18.33;7.15;;;;;;;5.21;75.43;101891.41;5018130;28;20139;-65
2021/04/18 05:30:36;;;;;;;14.95;6.72;;;;;;;5.26;75.32;101892.38;5021199;28;20126;-66
2021/04/18 05:33:02;;;;;;;19.67;6.95;;;;;;;5.27;75.64;101893.25;5021157;28;20522;-65
2021/04/18 05:35:28;;;;;;;15.93;7.60;;;;;;;5.32;74.94;101890.78;5018808;28;20117;-66
2021/04/18 05:37:55;;;;;;;16.13;8.13;;;;;;;5.44;75.00;101885.84;5020264;28;20055;-65
2021/04/18 05:40:21;;;;;;;21.13;7.80;;;;;;;5.48;74.55;101886.81;5015273;28;20104;-66
2021/04/18 05:42:47;;;;;;;19.30;7.65;;;;;;;5.52;74.87;101879.16;5018035;28;20115;-65
2021/04/18 05:45:13;;;;;;;20.65;7.00;;;;;;;5.57;74.47;101892.16;5016918;28;20418;-66
2021/04/18 05:47:39;;;;;;;16.88;6.97;;;;;;;5.62;74.00;101893.09;5022442;28;20048;-64
2021/04/18 05:50:06;;;;;;;16.17;7.13;;;;;;;5.68;74.23;101892.34;5018215;28;20132;-65
2021/04/18 05:52:32;;;;;;;13.68;6.82;;;;;;;5.71;74.41;101897.59;5019427;28;20049;-66
2021/04/18 05:54:59;;;;;;;19.50;7.80;;;;;;;5.83;73.53;101899.53;5020100;28;20050;-66
2021/04/18 05:57:24;;;;;;;17.92;7.03;;;;;;;5.87;73.37;101907.38;5020073;28;20499;-65
2021/04/18 05:59:50;;;;;;;19.25;7.10;;;;;;;5.84;73.29;101904.72;5017610;28;20084;-66
2021/04/18 06:02:16;;;;;;;17.55;7.55;;;;;;;5.87;73.64;101906.50;5020228;28;20054;-66
2021/04/18 06:04:42;;;;;;;20.90;8.63;;;;;;;5.88;74.02;101909.09;5013281;28;20554;-66
2021/04/18 06:07:08;;;;;;;21.50;7.22;;;;;;;5.91;73.96;101919.50;5018521;28;20045;-66
2021/04/18 06:09:34;;;;;;;21.77;10.13;;;;;;;5.76;74.97;101926.94;5017954;28;20149;-64
2021/04/18 06:18:45;;;;;;;22.80;9.35;;;;;;;5.80;76.25;101902.94;5013038;28;20155;-65
2021/04/18 06:21:11;;;;;;;17.30;8.20;;;;;;;5.98;75.36;101904.13;5014416;28;20525;-65
2021/04/18 06:23:37;;;;;;;17.58;8.77;;;;;;;6.15;74.60;101905.31;5020248;28;20057;-66
2021/04/18 06:26:04;;;;;;;21.92;8.60;;;;;;;6.25;74.29;101908.06;5020250;28;20526;-66
2021/04/18 06:28:30;;;;;;;16.73;8.85;;;;;;;6.37;74.07;101911.75;5006057;28;20049;-66
2021/04/18 06:30:56;;;;;;;22.45;8.45;;;;;;;6.52;73.86;101923.19;5019250;28;20152;-66
2021/04/18 06:33:22;;;;;;;16.90;8.60;;;;;;;6.66;73.56;101918.25;5014610;28;20057;-66
2021/04/18 06:35:49;;;;;;;20.95;7.90;;;;;;;6.83;72.52;101915.94;5019470;28;20049;-66
2021/04/18 06:38:15;;;;;;;17.30;8.18;;;;;;;6.91;72.41;101922.06;5016352;28;20192;-66
2021/04/18 06:40:42;;;;;;;16.98;9.45;;;;;;;6.83;72.42;101916.81;5015193;28;20080;-66
2021/04/18 06:43:09;;;;;;;17.63;8.70;;;;;;;6.82;72.59;101912.47;5018212;28;20123;-65
2021/04/18 06:45:36;;;;;;;20.95;8.90;;;;;;;6.91;72.25;101916.06;5016513;28;20065;-63
2021/04/18 06:48:02;;;;;;;20.20;8.73;;;;;;;6.95;72.27;101910.06;5019203;28;20127;-64
2021/04/18 06:50:29;;;;;;;22.27;8.60;;;;;;;7.03;71.98;101907.59;5016514;28;20092;-66
2021/04/18 06:52:55;;;;;;;18.00;7.97;;;;;;;7.13;71.69;101905.16;5015162;28;20506;-64
2021/04/18 06:55:21;;;;;;;23.60;10.00;;;;;;;7.15;71.67;101903.44;5014636;28;20061;-66
2021/04/18 06:57:47;;;;;;;23.52;9.30;;;;;;;7.27;70.70;101901.88;5015892;28;20080;-65
2021/04/18 07:00:15;;;;;;;18.52;8.68;;;;;;;7.23;70.89;101902.72;5014117;28;20054;-66
2021/04/18 07:02:41;;;;;;;16.55;9.57;;;;;;;7.05;71.47;101911.94;5010055;28;20049;-65
2021/04/18 07:05:10;;;;;;;19.27;8.63;;;;;;;6.99;71.98;101902.38;5017725;28;20122;-67
2021/04/18 07:07:38;;;;;;;17.77;8.43;;;;;;;7.13;72.25;101901.69;5007667;28;20053;-66
2021/04/18 07:10:07;;;;;;;18.27;8.50;;;;;;;7.21;71.82;101896.63;5013925;28;20056;-64
2021/04/18 07:12:34;;;;;;;17.17;8.57;;;;;;;7.39;71.01;101893.41;5016685;28;20507;-65
2021/04/18 07:15:02;;;;;;;23.95;10.13;;;;;;;7.50;70.12;101896.13;5017187;28;20079;-65
2021/04/18 07:17:28;;;;;;;17.65;8.40;;;;;;;7.69;69.23;101895.50;5016123;28;20049;-65
2021/04/18 07:20:09;;;;;;;19.55;8.80;;;;;;;7.77;69.18;101893.00;5015378;28;20048;-66
2021/04/18 07:22:35;;;;;;;18.35;8.48;;;;;;;7.73;69.06;101902.47;5011195;28;20050;-67
2021/04/18 07:25:01;;;;;;;21.20;8.65;;;;;;;7.67;69.42;101904.13;5011848;28;20606;-62
2021/04/18 07:27:45;;;;;;;16.90;7.95;;;;;;;7.71;68.97;101903.28;5015136;28;20061;-66
2021/04/18 07:30:12;;;;;;;18.25;8.40;;;;;;;7.91;68.23;101900.94;5017089;28;20060;-67
2021/04/18 07:32:38;;;;;;;19.98;9.80;;;;;;;7.83;68.80;101916.38;5013335;28;20056;-68
2021/04/18 07:35:05;;;;;;;19.02;8.00;;;;;;;7.81;68.14;101925.84;5015593;28;20062;-66
2021/04/18 07:37:33;;;;;;;20.23;8.25;;;;;;;7.67;68.82;101927.41;5014204;28;20054;-67
2021/04/18 07:40:01;;;;;;;20.13;8.88;;;;;;;7.51;69.71;101918.59;5017778;28;20049;-65
2021/04/18 07:42:32;;;;;;;21.20;9.00;;;;;;;7.65;69.58;101911.84;5003416;28;20045;-66
2021/04/18 07:45:01;;;;;;;19.80;9.25;;;;;;;7.58;69.38;101916.09;5012154;28;20053;-66
2021/04/18 07:47:27;;;;;;;24.38;10.80;;;;;;;7.42;70.17;101903.81;5001171;28;20353;-66
2021/04/18 07:49:54;;;;;;;27.13;11.20;;;;;;;7.41;70.22;101905.53;5018103;28;20878;-65
2021/04/18 07:52:23;;;;;;;24.83;10.98;;;;;;;7.48;70.00;101901.31;5017280;28;20049;-66
2021/04/18 07:54:49;;;;;;;25.63;10.98;;;;;;;7.58;69.74;101899.69;5017209;28;20080;-66
2021/04/18 07:57:17;;;;;;;20.15;10.25;;;;;;;7.76;69.40;101899.03;5013493;28;20057;-66
2021/04/18 07:59:43;;;;;;;23.65;9.80;;;;;;;7.82;68.59;101898.25;5013582;28;20094;-66
2021/04/18 08:02:14;;;;;;;23.88;10.15;;;;;;;7.91;68.08;101894.00;5008591;28;20050;-64
2021/04/18 08:04:41;;;;;;;22.20;11.25;;;;;;;7.88;68.34;101890.53;5015953;28;20038;-66
2021/04/18 08:07:07;;;;;;;25.20;10.30;;;;;;;7.94;68.65;101891.47;5014473;28;20053;-66
2021/04/18 08:09:33;;;;;;;24.88;10.52;;;;;;;8.31;68.27;101888.34;5012801;28;20065;-67
2021/04/18 08:12:07;;;;;;;25.45;10.70;;;;;;;8.62;67.12;101892.94;5012681;28;20060;-66
2021/04/18 08:14:33;;;;;;;21.58;10.63;;;;;;;8.67;65.98;101896.47;5013303;28;20199;-66
2021/04/18 08:17:03;;;;;;;21.33;11.23;;;;;;;8.85;65.22;101894.00;5012519;28;20045;-66
2021/04/18 08:19:30;;;;;;;23.60;10.60;;;;;;;8.70;64.81;101889.56;5012974;28;20059;-66
2021/04/18 08:21:56;;;;;;;19.83;9.75;;;;;;;8.77;64.72;101887.00;5015400;28;20053;-66
2021/04/18 08:24:35;;;;;;;24.88;9.55;;;;;;;8.86;64.99;101881.88;5012600;28;20138;-66
2021/04/18 08:27:03;;;;;;;22.08;8.95;;;;;;;9.09;63.70;101881.16;5016145;28;20108;-67
2021/04/18 08:29:30;;;;;;;16.90;8.30;;;;;;;9.18;61.80;101878.59;5010414;28;20583;-66
2021/04/18 08:32:02;;;;;;;20.38;8.38;;;;;;;9.28;61.90;101890.75;5012822;28;20064;-66
2021/04/18 08:34:31;;;;;;;18.70;8.07;;;;;;;9.01;62.89;101892.38;5010110;28;20049;-65
2021/04/18 08:36:59;;;;;;;15.90;8.35;;;;;;;9.03;62.37;101889.75;5011728;28;20100;-68
2021/04/18 08:39:27;;;;;;;17.80;8.10;;;;;;;8.95;62.45;101887.13;5014161;28;20119;-68
2021/04/18 08:41:55;;;;;;;16.20;7.45;;;;;;;8.89;62.18;101883.59;5012636;28;20110;-67
2021/04/18 08:44:23;;;;;;;17.33;7.90;;;;;;;8.91;62.65;101882.78;5021505;28;20049;-69
2021/04/18 08:46:51;;;;;;;19.17;8.32;;;;;;;8.90;63.25;101883.63;5012977;28;20054;-68
2021/04/18 08:49:28;;;;;;;17.27;7.43;;;;;;;9.16;62.51;101880.31;5012696;28;20088;-70
2021/04/18 08:51:55;;;;;;;18.15;7.70;;;;;;;9.39;62.79;101883.00;5016780;28;20041;-67
2021/04/18 08:54:31;;;;;;;15.77;8.23;;;;;;;9.63;61.29;101890.03;5023205;28;20096;-68
2021/04/18 08:56:59;;;;;;;16.67;7.60;;;;;;;9.71;61.97;101894.41;5018515;28;20593;-69
2021/04/18 08:59:25;;;;;;;15.18;8.70;;;;;;;9.84;61.36;101890.94;5023961;28;20053;-68
2021/04/18 09:01:58;;;;;;;17.45;7.55;;;;;;;10.02;60.92;101884.06;5025226;28;20053;-68
2021/04/18 09:04:24;;;;;;;17.23;7.50;;;;;;;10.24;60.98;101891.00;5021877;28;20107;-67
2021/04/18 09:06:50;;;;;;;18.92;7.22;;;;;;;10.21;58.95;101885.84;5022848;28;20045;-67
2021/04/18 09:09:18;;;;;;;16.98;8.10;;;;;;;10.24;59.20;101888.41;5025096;28;20580;-68
2021/04/18 09:11:47;;;;;;;17.30;7.47;;;;;;;10.32;59.41;101887.56;5025364;28;20068;-68
2021/04/18 09:14:15;;;;;;;16.95;7.20;;;;;;;10.25;59.95;101887.56;5023734;28;20046;-67
2021/04/18 09:16:41;;;;;;;16.05;7.72;;;;;;;10.33;59.09;101887.56;5023888;28;20597;-67
2021/04/18 09:19:29;;;;;;;13.27;6.82;;;;;;;10.40;59.22;101893.69;5024771;28;20041;-70
2021/04/18 09:22:07;;;;;;;13.55;7.07;;;;;;;10.32;57.89;101890.19;5022620;28;20053;-68
2021/04/18 09:24:38;;;;;;;14.90;7.65;;;;;;;10.13;57.70;101897.97;5018076;28;20053;-67
2021/04/18 09:27:10;;;;;;;16.02;6.80;;;;;;;10.17;58.03;101894.47;5023535;28;20099;-69
2021/04/18 09:29:41;;;;;;;18.00;8.35;;;;;;;10.24;58.26;101888.41;5022353;28;20461;-70
2021/04/18 09:32:10;;;;;;;14.57;7.03;;;;;;;10.36;57.91;101894.50;5020749;28;20115;-70
2021/04/18 09:34:39;;;;;;;15.35;6.90;;;;;;;10.29;57.08;101892.75;5012235;28;20045;-66
2021/04/18 09:37:08;;;;;;;13.45;7.22;;;;;;;10.00;58.29;101896.19;5014549;28;20049;-69
2021/04/18 09:39:37;;;;;;;16.30;7.38;;;;;;;9.97;58.92;101897.06;5021815;28;20080;-68
2021/04/18 09:42:05;;;;;;;13.02;7.60;;;;;;;10.20;58.38;101891.00;5017919;28;20124;-68
2021/04/18 09:44:33;;;;;;;16.77;7.80;;;;;;;10.32;57.51;101895.38;5023137;28;20052;-70
2021/04/18 09:47:19;;;;;;;15.80;7.70;;;;;;;10.44;57.73;101903.19;5023904;28;20045;-68
2021/04/18 09:49:52;;;;;;;16.33;7.57;;;;;;;10.53;57.62;101902.34;5031908;28;20045;-65
2021/04/18 09:52:30;;;;;;;12.15;7.00;;;;;;;10.71;57.89;101896.25;5026660;28;20128;-67
2021/04/18 09:55:09;;;;;;;14.38;7.53;;;;;;;10.97;56.79;101898.84;5029766;28;20095;-66
2021/04/18 09:57:47;;;;;;;15.40;7.18;;;;;;;11.16;56.73;101893.56;5025787;28;20057;-66
2021/04/18 10:00:17;;;;;;;13.45;6.68;;;;;;;11.06;55.62;101900.53;5019000;28;20048;-64
2021/04/18 10:03:00;;;;;;;14.55;8.02;;;;;;;11.09;55.93;101895.31;5021209;28;20376;-66
2021/04/18 10:05:27;;;;;;;12.48;7.18;;;;;;;11.03;55.71;101897.91;5028664;28;20061;-66
2021/04/18 10:08:14;;;;;;;15.98;7.03;;;;;;;10.86;56.01;101900.59;5030111;28;20068;-67
2021/04/18 10:10:41;;;;;;;12.40;6.60;;;;;;;10.63;55.86;101887.59;5021103;28;20052;-66
2021/04/18 10:13:08;;;;;;;18.42;8.10;;;;;;;10.51;56.84;101889.34;5019639;28;20525;-68
2021/04/18 10:15:34;;;;;;;18.02;7.15;;;;;;;10.69;56.84;101884.97;5016918;28;20511;-68
2021/04/18 10:18:09;;;;;;;14.25;7.43;;;;;;;10.63;56.15;101887.59;5017241;28;20081;-68
2021/04/18 10:20:36;;;;;;;15.20;7.20;;;;;;;10.34;56.86;101878.91;5017181;28;20499;-68
2021/04/18 10:23:07;;;;;;;14.60;7.32;;;;;;;10.46;57.12;101885.00;5018614;28;20107;-68
2021/04/18 10:25:33;;;;;;;13.77;7.78;;;;;;;10.29;57.77;101880.63;5017248;28;21929;-67
2021/04/18 10:28:00;;;;;;;18.48;7.88;;;;;;;10.36;58.29;101876.28;5018537;28;20045;-65
2021/04/18 10:30:27;;;;;;;17.15;8.50;;;;;;;10.58;57.43;101867.66;5020583;28;20037;-67
2021/04/18 10:32:53;;;;;;;12.52;7.22;;;;;;;10.74;57.29;101870.22;5016578;28;20058;-67
2021/04/18 10:35:20;;;;;;;17.40;7.30;;;;;;;10.88;56.51;101868.47;5015051;28;20135;-67
2021/04/18 10:37:47;;;;;;;14.95;7.10;;;;;;;11.14;56.69;101851.88;5014265;28;20050;-69
2021/04/18 10:40:14;;;;;;;17.95;8.10;;;;;;;11.61;54.98;101859.50;5015809;28;20045;-67
2021/04/18 10:42:40;;;;;;;15.90;6.63;;;;;;;11.70;53.39;101856.84;5020912;28;20053;-68
2021/04/18 10:45:09;;;;;;;16.90;7.80;;;;;;;11.95;52.92;101854.97;5015976;28;20045;-65
2021/04/18 10:47:35;;;;;;;14.38;7.63;;;;;;;12.28;52.55;101849.53;5012219;28;20160;-67
2021/04/18 10:52:58;;;;;;;11.60;6.63;;;;;;;12.37;51.53;101856.41;4958949;28;20058;-66
2021/04/18 10:55:24;;;;;;;12.95;6.47;;;;;;;12.26;50.38;101848.66;5016728;28;20509;-68
2021/04/18 10:57:50;;;;;;;12.43;6.40;;;;;;;12.10;50.67;101846.19;5022140;28;20533;-68
2021/04/18 11:00:39;;;;;;;10.65;6.00;;;;;;;11.78;50.34;101839.41;5018698;28;20049;-70
2021/04/18 11:09:48;;;;;;;10.25;6.30;;;;;;;11.83;51.86;101842.84;5010016;28;20057;-68
2021/04/18 11:13:07;;;;;;;14.18;6.80;;;;;;;12.12;50.91;101849.66;5012174;28;20057;-69
2021/04/18 11:15:35;;;;;;;16.17;6.53;;;;;;;11.98;51.50;101843.66;5015428;28;20050;-67
2021/04/18 11:21:24;;;;;;;14.43;6.63;;;;;;;11.93;50.95;101833.25;5015431;28;20522;-67
2021/04/18 11:23:50;;;;;;;15.07;6.65;;;;;;;12.12;50.93;101835.72;5019614;28;20636;-67
2021/04/18 11:26:16;;;;;;;12.73;7.07;;;;;;;12.38;50.16;101817.25;5020756;28;20049;-68
2021/04/18 11:28:42;;;;;;;16.17;6.72;;;;;;;12.54;49.73;101817.97;5016705;28;20049;-67
2021/04/18 11:31:08;;;;;;;16.95;6.60;;;;;;;12.86;48.96;101818.50;5018797;28;20060;-66
2021/04/18 11:33:36;;;;;;;11.50;6.35;;;;;;;12.91;48.10;101814.09;5014309;28;20414;-67
2021/04/18 11:36:02;;;;;;;13.73;6.47;;;;;;;12.87;47.47;101815.00;5016877;28;20647;-67
2021/04/18 11:38:29;;;;;;;12.35;6.38;;;;;;;12.81;47.46;101809.88;5010549;28;20045;-68
2021/04/18 11:41:00;;;;;;;14.30;6.78;;;;;;;12.62;48.05;101804.84;5019181;28;20050;-68
2021/04/18 11:43:26;;;;;;;14.77;6.90;;;;;;;12.63;48.46;101811.78;5005399;28;20522;-67
2021/04/18 11:45:53;;;;;;;13.43;6.43;;;;;;;12.46;48.63;101808.47;5014691;28;20045;-65
2021/04/18 11:48:22;;;;;;;12.27;6.75;;;;;;;12.48;49.11;101806.72;5014617;28;20084;-67
2021/04/18 11:50:49;;;;;;;13.23;6.70;;;;;;;12.64;48.45;101813.50;5012973;28;20133;-66
2021/04/18 11:53:15;;;;;;;11.07;6.65;;;;;;;12.72;48.31;101806.47;5025441;28;20060;-65
2021/04/18 11:55:42;;;;;;;11.20;6.57;;;;;;;12.88;46.90;101806.28;5016574;28;20053;-66
2021/04/18 11:58:08;;;;;;;13.95;6.15;;;;;;;13.19;47.09;101808.53;5013832;28;20060;-67